createdAt,value
2019-01-27T00:00:21.393Z,287.20
2019-01-27T00:02:49.676Z,300.77
2019-01-27T00:05:17.964Z,270.50
2019-01-27T00:07:46.435Z,244.53
2019-01-27T00:10:14.710Z,274.83
2019-01-27T00:12:43.076Z,274.93
2019-01-27T00:15:23.522Z,279.43
2019-01-27T00:17:51.924Z,301.90
2019-01-27T00:20:22.055Z,311.10
2019-01-27T00:22:50.494Z,344.43
2019-01-27T00:25:18.807Z,360.90
2019-01-27T00:27:47.093Z,365.80
2019-01-27T00:30:21.538Z,392.73
2019-01-27T00:32:49.919Z,423.63
2019-01-27T00:35:18.204Z,432.47
2019-01-27T00:37:46.549Z,428.20
2019-01-27T00:40:16.491Z,414.13
2019-01-27T00:42:45.090Z,350.23
2019-01-27T00:45:23.591Z,286.43
2019-01-27T00:47:52.082Z,244.17
2019-01-27T00:50:20.450Z,221.83
2019-01-27T00:52:48.818Z,195.87
2019-01-27T00:55:22.400Z,188.97
2019-01-27T00:57:50.767Z,199.13
2019-01-27T01:00:21.904Z,177.77
2019-01-27T01:02:50.531Z,184.93
2019-01-27T01:05:18.969Z,160.93
2019-01-27T01:07:47.353Z,176.03
2019-01-27T01:10:20.633Z,154.33
2019-01-27T01:12:48.926Z,144.07
2019-01-27T01:15:28.644Z,141.03
2019-01-27T01:17:57.001Z,140.97
2019-01-27T01:20:25.367Z,123.67
2019-01-27T01:22:53.680Z,115.23
2019-01-27T01:25:25.838Z,116.90
2019-01-27T01:27:54.137Z,104.77
2019-01-27T01:30:31.268Z,82.33
2019-01-27T01:32:59.652Z,111.23
2019-01-27T01:35:28.191Z,109.60
2019-01-27T01:37:56.572Z,101.53
2019-01-27T01:40:24.865Z,88.00
2019-01-27T01:42:53.218Z,98.77
2019-01-27T01:45:31.726Z,106.43
2019-01-27T01:48:00.026Z,106.20
2019-01-27T01:50:28.301Z,105.17
2019-01-27T01:52:56.617Z,114.63
2019-01-27T01:55:24.905Z,120.50
2019-01-27T01:57:53.288Z,119.40
2019-01-27T02:00:23.929Z,112.57
2019-01-27T02:02:54.425Z,117.60
2019-01-27T02:05:22.799Z,121.97
2019-01-27T02:07:51.107Z,114.20
2019-01-27T02:10:21.899Z,112.07
2019-01-27T02:12:50.765Z,113.97
2019-01-27T02:15:40.517Z,113.50
2019-01-27T02:18:08.805Z,108.37
2019-01-27T02:20:37.093Z,125.40
2019-01-27T02:23:05.399Z,121.37
2019-01-27T02:25:33.680Z,116.77
2019-01-27T02:28:03.653Z,116.90
2019-01-27T02:30:33.123Z,110.47
2019-01-27T02:33:01.503Z,106.20
2019-01-27T02:35:29.789Z,100.43
2019-01-27T02:37:58.123Z,107.43
2019-01-27T02:40:26.408Z,102.53
2019-01-27T02:42:54.739Z,92.90
2019-01-27T02:45:23.141Z,102.53
2019-01-27T02:47:51.490Z,97.33
2019-01-27T02:50:20.693Z,97.13
2019-01-27T02:52:49.009Z,99.53
2019-01-27T02:55:17.291Z,99.50
2019-01-27T02:57:45.565Z,97.83
2019-01-27T03:00:16.392Z,87.67
2019-01-27T03:02:44.742Z,86.00
2019-01-27T03:05:14.933Z,79.67
2019-01-27T03:07:43.260Z,80.97
2019-01-27T03:10:16.580Z,75.40
2019-01-27T03:12:44.880Z,79.07
2019-01-27T03:15:13.860Z,79.77
2019-01-27T03:17:42.216Z,78.83
2019-01-27T03:20:11.932Z,86.40
2019-01-27T03:22:40.384Z,77.30
2019-01-27T03:25:16.410Z,80.00
2019-01-27T03:27:44.706Z,82.23
2019-01-27T03:30:16.290Z,89.80
2019-01-27T03:32:44.549Z,80.40
2019-01-27T03:35:12.959Z,79.20
2019-01-27T03:37:41.337Z,82.23
2019-01-27T03:40:12.427Z,80.13
2019-01-27T03:42:40.748Z,71.57
2019-01-27T03:45:15.012Z,77.77
2019-01-27T03:47:43.293Z,77.57
2019-01-27T03:50:19.142Z,75.03
2019-01-27T03:52:47.424Z,77.83
2019-01-27T03:55:24.773Z,67.70
2019-01-27T03:57:53.140Z,67.90
2019-01-27T04:00:22.773Z,66.07
2019-01-27T04:02:51.080Z,67.40
2019-01-27T04:05:19.353Z,59.57
2019-01-27T04:07:47.648Z,60.83
2019-01-27T04:10:24.447Z,60.27
2019-01-27T04:12:52.854Z,61.50
2019-01-27T04:15:21.146Z,57.80
2019-01-27T04:17:49.470Z,61.13
2019-01-27T04:20:19.778Z,63.23
2019-01-27T04:22:48.050Z,62.00
2019-01-27T04:25:16.428Z,66.07
2019-01-27T04:27:44.770Z,61.83
2019-01-27T04:30:23.239Z,57.87
2019-01-27T04:32:51.514Z,55.33
2019-01-27T04:35:19.795Z,57.47
2019-01-27T04:37:48.183Z,59.63
2019-01-27T04:40:18.796Z,54.97
2019-01-27T04:42:47.089Z,56.93
2019-01-27T04:45:17.857Z,77.23
2019-01-27T04:47:46.151Z,66.90
2019-01-27T04:50:14.923Z,52.43
2019-01-27T04:52:43.273Z,58.17
2019-01-27T04:55:16.738Z,55.43
2019-01-27T04:57:45.009Z,52.37
2019-01-27T05:00:27.254Z,49.80
2019-01-27T05:02:59.957Z,49.73
2019-01-27T05:05:28.240Z,49.67
2019-01-27T05:07:56.540Z,52.80
2019-01-27T05:10:24.826Z,55.97
2019-01-27T05:12:53.089Z,52.87
2019-01-27T05:15:30.332Z,52.20
2019-01-27T05:17:58.611Z,56.47
2019-01-27T05:20:26.901Z,52.67
2019-01-27T05:22:55.185Z,52.40
2019-01-27T05:25:23.540Z,53.43
2019-01-27T05:27:51.874Z,52.33
2019-01-27T05:30:22.470Z,53.00
2019-01-27T05:32:50.743Z,52.60
2019-01-27T05:35:19.019Z,51.27
2019-01-27T05:37:47.323Z,49.83
2019-01-27T05:40:20.657Z,52.40
2019-01-27T05:42:48.935Z,48.63
2019-01-27T05:45:18.790Z,52.43
2019-01-27T05:47:47.065Z,53.83
2019-01-27T05:50:16.578Z,52.53
2019-01-27T05:52:44.892Z,47.27
2019-01-27T05:55:15.755Z,48.27
2019-01-27T05:57:44.176Z,45.83
2019-01-27T06:00:16.811Z,49.77
2019-01-27T06:02:45.153Z,51.57
2019-01-27T06:05:13.676Z,51.83
2019-01-27T06:07:41.991Z,54.57
2019-01-27T06:10:12.421Z,58.43
2019-01-27T06:12:40.863Z,54.13
2019-01-27T06:15:12.452Z,51.63
2019-01-27T06:17:43.091Z,47.40
2019-01-27T06:20:13.722Z,50.80
2019-01-27T06:22:42.527Z,54.10
2019-01-27T06:25:13.075Z,53.87
2019-01-27T06:27:41.347Z,52.20
2019-01-27T06:30:15.508Z,61.83
2019-01-27T06:33:03.438Z,62.83
2019-01-27T06:35:31.803Z,62.07
2019-01-27T06:38:00.077Z,59.27
2019-01-27T06:40:28.345Z,59.10
2019-01-27T06:42:56.667Z,55.83
2019-01-27T06:45:24.945Z,66.90
2019-01-27T06:47:53.239Z,66.03
2019-01-27T06:50:23.278Z,63.67
2019-01-27T06:52:51.562Z,72.90
2019-01-27T06:55:22.264Z,70.63
2019-01-27T06:57:50.562Z,70.03
2019-01-27T07:00:25.648Z,71.63
2019-01-27T07:02:55.604Z,67.10
2019-01-27T07:05:25.517Z,63.80
2019-01-27T07:07:55.525Z,65.07
2019-01-27T07:10:37.421Z,59.37
2019-01-27T07:13:13.076Z,57.93
2019-01-27T07:16:19.043Z,60.73
2019-01-27T07:18:51.687Z,57.77
2019-01-27T07:21:27.333Z,68.73
2019-01-27T07:24:06.168Z,67.00
2019-01-27T07:26:38.618Z,72.40
2019-01-27T07:29:26.630Z,69.87
2019-01-27T07:32:12.510Z,59.73
2019-01-27T07:34:49.341Z,63.53
2019-01-27T07:37:19.448Z,59.57
2019-01-27T07:40:05.507Z,58.10
2019-01-27T07:42:52.693Z,63.43
2019-01-27T07:45:25.331Z,59.23
2019-01-27T07:48:06.966Z,109.13
2019-01-27T07:50:39.449Z,112.77
2019-01-27T07:53:25.619Z,102.43
2019-01-27T07:55:55.521Z,83.70
2019-01-27T07:58:28.138Z,78.77
2019-01-27T08:01:06.979Z,76.57
2019-01-27T08:03:39.599Z,79.57
2019-01-27T08:06:09.537Z,87.40
2019-01-27T08:08:39.467Z,87.47
2019-01-27T08:11:09.376Z,86.53
2019-01-27T08:13:54.586Z,96.13
2019-01-27T08:16:27.210Z,103.00
2019-01-27T08:19:13.474Z,101.97
2019-01-27T08:21:46.330Z,121.13
2019-01-27T08:24:22.198Z,111.13
2019-01-27T08:27:08.375Z,97.53
2019-01-27T08:29:44.433Z,106.13
2019-01-27T08:32:20.308Z,92.60
2019-01-27T08:34:50.242Z,83.03
2019-01-27T08:37:23.250Z,84.03
2019-01-27T08:39:58.872Z,77.47
2019-01-27T08:42:31.382Z,71.87
2019-01-27T08:45:04.076Z,69.23
2019-01-27T08:47:32.443Z,67.60
2019-01-27T08:50:00.852Z,73.93
2019-01-27T08:52:29.150Z,77.33
2019-01-27T08:54:57.434Z,71.90
2019-01-27T08:57:28.701Z,75.07
2019-01-27T08:59:57.006Z,77.97
2019-01-27T09:02:27.841Z,82.93
2019-01-27T09:04:57.760Z,77.03
2019-01-27T09:07:30.420Z,75.37
2019-01-27T09:10:05.999Z,72.87
2019-01-27T09:12:52.256Z,70.83
2019-01-27T09:15:38.334Z,65.93
2019-01-27T09:18:08.285Z,68.43
2019-01-27T09:20:38.207Z,70.43
2019-01-27T09:23:14.009Z,65.33
2019-01-27T09:25:52.920Z,75.40
2019-01-27T09:28:22.861Z,73.30
2019-01-27T09:31:10.999Z,76.10
2019-01-27T09:33:43.368Z,79.83
2019-01-27T09:36:13.284Z,93.20
2019-01-27T09:38:45.861Z,91.27
2019-01-27T09:41:15.935Z,95.93
2019-01-27T09:43:51.576Z,96.20
2019-01-27T09:46:21.539Z,97.77
2019-01-27T09:48:51.445Z,100.57
2019-01-27T09:51:27.910Z,108.03
2019-01-27T09:54:03.698Z,112.47
2019-01-27T09:56:45.489Z,119.57
2019-01-27T09:59:18.235Z,108.17
2019-01-27T10:01:53.688Z,113.30
2019-01-27T10:04:23.608Z,111.20
2019-01-27T10:06:53.524Z,121.33
2019-01-27T10:09:39.749Z,111.43
2019-01-27T10:12:15.634Z,114.37
2019-01-27T10:14:48.109Z,111.50
2019-01-27T10:17:18.035Z,110.27
2019-01-27T10:20:06.477Z,104.07
2019-01-27T10:22:36.389Z,102.57
2019-01-27T10:25:16.010Z,113.77
2019-01-27T10:27:41.466Z,120.27
2019-01-27T10:30:14.803Z,114.87
2019-01-27T10:32:47.669Z,125.90
2019-01-27T10:35:17.604Z,116.37
2019-01-27T10:37:47.626Z,127.47
2019-01-27T10:40:39.815Z,122.97
2019-01-27T10:43:05.582Z,137.70
2019-01-27T10:45:44.043Z,126.63
2019-01-27T10:48:19.472Z,127.83
2019-01-27T10:50:49.478Z,119.50
2019-01-27T10:53:35.699Z,126.20
2019-01-27T10:56:21.747Z,115.17
2019-01-27T10:58:51.740Z,115.83
2019-01-27T11:01:27.568Z,118.53
2019-01-27T11:04:03.433Z,130.03
2019-01-27T11:06:39.105Z,122.80
2019-01-27T11:09:26.681Z,122.87
2019-01-27T11:12:05.398Z,112.47
2019-01-27T11:14:44.769Z,102.90
2019-01-27T11:17:20.496Z,104.30
2019-01-27T11:20:05.433Z,103.57
2019-01-27T11:22:38.153Z,104.83
2019-01-27T11:25:13.249Z,104.60
2019-01-27T11:27:48.671Z,108.20
2019-01-27T11:33:24.317Z,106.73
2019-01-27T11:35:59.226Z,111.57
2019-01-27T11:38:31.780Z,115.87
2019-01-27T11:41:18.020Z,116.90
2019-01-27T11:43:51.375Z,121.30
2019-01-27T11:46:21.365Z,114.13
2019-01-27T11:48:54.059Z,115.87
2019-01-27T11:51:23.959Z,122.43
2019-01-27T11:53:52.239Z,110.83
2019-01-27T11:56:20.556Z,115.03
2019-01-27T11:58:48.835Z,127.93
2019-01-27T12:01:17.118Z,115.30
2019-01-27T12:03:45.442Z,110.17
2019-01-27T12:06:13.785Z,110.57
2019-01-27T12:08:42.091Z,101.87
2019-01-27T12:11:10.402Z,116.70
2019-01-27T12:13:38.695Z,109.23
2019-01-27T12:16:25.071Z,107.53
2019-01-27T12:18:53.368Z,101.87
2019-01-27T12:21:21.648Z,103.77
2019-01-27T12:23:49.974Z,121.13
2019-01-27T12:26:18.331Z,103.53
2019-01-27T12:28:46.606Z,103.40
2019-01-27T12:31:14.928Z,98.33
2019-01-27T12:33:43.281Z,84.87
2019-01-27T12:36:11.564Z,87.43
2019-01-27T12:38:39.939Z,88.63
2019-01-27T12:41:08.228Z,80.73
2019-01-27T12:43:36.512Z,84.40
2019-01-27T12:46:04.837Z,89.20
2019-01-27T12:48:33.188Z,94.03
2019-01-27T12:51:01.502Z,87.47
2019-01-27T12:53:29.823Z,90.37
2019-01-27T12:55:58.106Z,90.47
2019-01-27T12:58:26.391Z,105.53
2019-01-27T13:00:55.943Z,91.07
2019-01-27T13:03:24.214Z,93.57
2019-01-27T13:05:52.491Z,88.03
2019-01-27T13:08:20.789Z,88.63
2019-01-27T13:10:49.069Z,89.07
2019-01-27T13:13:17.357Z,83.30
2019-01-27T13:15:45.669Z,84.13
2019-01-27T13:18:14.075Z,81.93
2019-01-27T13:20:42.503Z,77.00
2019-01-27T13:23:10.813Z,79.00
2019-01-27T13:25:39.093Z,82.00
2019-01-27T13:28:07.360Z,85.67
2019-01-27T13:30:35.768Z,83.13
2019-01-27T13:33:04.094Z,87.50
2019-01-27T13:35:32.382Z,95.00
2019-01-27T13:38:00.713Z,89.13
2019-01-27T13:40:28.987Z,94.37
2019-01-27T13:42:57.281Z,93.30
2019-01-27T13:45:30.636Z,95.10
2019-01-27T13:47:59.306Z,95.77
2019-01-27T13:50:27.762Z,96.77
2019-01-27T13:52:56.484Z,92.13
2019-01-27T13:55:30.455Z,94.63
2019-01-27T13:57:58.729Z,95.37
2019-01-27T14:00:29.515Z,99.73
2019-01-27T14:02:57.787Z,96.10
2019-01-27T14:05:26.086Z,97.60
2019-01-27T14:07:54.457Z,94.97
2019-01-27T14:10:28.128Z,98.87
2019-01-27T14:12:56.485Z,95.23
2019-01-27T14:15:33.139Z,97.77
2019-01-27T14:18:01.533Z,103.33
2019-01-27T14:20:29.884Z,99.87
2019-01-27T14:22:58.201Z,108.83
2019-01-27T14:25:28.845Z,102.13
2019-01-27T14:27:57.350Z,105.77
2019-01-27T14:30:34.741Z,105.80
2019-01-27T14:33:05.361Z,107.00
2019-01-27T14:35:33.689Z,104.37
2019-01-27T14:38:02.005Z,99.30
2019-01-27T14:40:31.149Z,109.23
2019-01-27T14:43:00.826Z,108.20
2019-01-27T14:45:32.238Z,107.30
2019-01-27T14:48:01.233Z,121.10
2019-01-27T14:50:44.272Z,97.60
2019-01-27T14:53:12.576Z,99.13
2019-01-27T14:55:40.854Z,123.60
2019-01-27T14:58:09.163Z,105.63
2019-01-27T15:00:39.989Z,93.23
2019-01-27T15:03:08.595Z,87.83
2019-01-27T15:05:36.987Z,127.07
2019-01-27T15:08:05.912Z,103.83
2019-01-27T15:10:34.351Z,121.33
2019-01-27T15:13:02.719Z,104.33
2019-01-27T15:15:31.945Z,101.57
2019-01-27T15:18:00.236Z,106.87
2019-01-27T15:20:34.472Z,101.60
2019-01-27T15:23:02.768Z,101.93
2019-01-27T15:25:31.050Z,92.97
2019-01-27T15:27:59.354Z,108.83
2019-01-27T15:30:30.645Z,102.37
2019-01-27T15:32:58.983Z,97.10
2019-01-27T15:35:28.954Z,100.17
2019-01-27T15:37:57.287Z,116.10
2019-01-27T15:40:25.553Z,105.17
2019-01-27T15:42:53.877Z,114.00
2019-01-27T15:45:28.251Z,109.57
2019-01-27T15:47:56.599Z,183.70
2019-01-27T15:50:33.871Z,224.13
2019-01-27T15:53:02.145Z,446.07
2019-01-27T15:55:30.418Z,165.37
2019-01-27T15:57:58.739Z,114.53
2019-01-27T16:00:32.087Z,109.07
2019-01-27T16:03:00.389Z,115.53
2019-01-27T16:05:28.697Z,102.10
2019-01-27T16:07:56.964Z,86.77
2019-01-27T16:10:26.371Z,95.63
2019-01-27T16:12:56.346Z,90.13
2019-01-27T16:15:33.584Z,93.03
2019-01-27T16:18:01.900Z,86.47
2019-01-27T16:20:30.533Z,89.47
2019-01-27T16:23:12.226Z,85.60
2019-01-27T16:25:41.513Z,86.10
2019-01-27T16:28:09.977Z,85.77
2019-01-27T16:30:55.818Z,87.07
2019-01-27T16:33:40.858Z,96.23
2019-01-27T16:36:09.174Z,86.13
2019-01-27T16:38:37.443Z,84.77
2019-01-27T16:41:05.900Z,83.67
2019-01-27T16:43:34.281Z,78.73
2019-01-27T16:46:02.677Z,84.63
2019-01-27T16:48:30.937Z,87.57
2019-01-27T16:50:59.246Z,90.80
2019-01-27T16:53:27.511Z,89.20
2019-01-27T16:55:55.847Z,87.37
2019-01-27T16:58:24.274Z,164.13
2019-01-27T17:00:52.587Z,86.87
2019-01-27T17:03:20.866Z,101.13
2019-01-27T17:05:49.179Z,81.97
2019-01-27T17:08:17.458Z,88.30
2019-01-27T17:10:45.764Z,87.30
2019-01-27T17:13:14.034Z,81.07
2019-01-27T17:15:42.484Z,86.17
2019-01-27T17:18:10.757Z,82.53
2019-01-27T17:20:39.063Z,87.50
2019-01-27T17:23:07.402Z,92.17
2019-01-27T17:25:35.685Z,80.90
2019-01-27T17:28:04.004Z,80.50
2019-01-27T17:30:32.413Z,79.37
2019-01-27T17:33:00.689Z,84.57
2019-01-27T17:35:29.009Z,85.53
2019-01-27T17:37:57.398Z,87.40
2019-01-27T17:40:25.672Z,89.10
2019-01-27T17:42:53.976Z,93.83
2019-01-27T17:45:27.790Z,104.47
2019-01-27T17:47:56.049Z,82.80
2019-01-27T17:50:25.013Z,82.47
2019-01-27T17:52:53.353Z,84.33
2019-01-27T17:55:39.534Z,78.63
2019-01-27T17:58:37.568Z,90.13
2019-01-27T18:01:07.610Z,75.60
2019-01-27T18:03:43.414Z,69.63
2019-01-27T18:06:15.831Z,69.07
2019-01-27T18:08:45.747Z,65.70
2019-01-27T18:11:21.738Z,67.03
2019-01-27T18:13:50.970Z,66.17
2019-01-27T18:16:19.240Z,65.40
2019-01-27T18:18:49.290Z,74.40
2019-01-27T18:21:17.556Z,76.80
2019-01-27T18:23:45.834Z,80.83
2019-01-27T18:26:14.208Z,82.27
2019-01-27T18:28:43.212Z,79.93
2019-01-27T18:31:11.495Z,81.53
2019-01-27T18:33:39.782Z,84.93
2019-01-27T18:36:08.064Z,77.80
2019-01-27T18:38:36.353Z,79.20
2019-01-27T18:41:04.816Z,77.00
2019-01-27T18:43:33.110Z,77.83
2019-01-27T18:46:01.404Z,82.67
2019-01-27T18:48:29.682Z,79.70
2019-01-27T18:50:57.965Z,142.40
2019-01-27T18:53:33.819Z,105.10
2019-01-27T18:56:09.631Z,79.80
2019-01-27T18:58:55.541Z,83.13
2019-01-27T19:01:25.502Z,87.37
2019-01-27T19:03:55.517Z,80.23
2019-01-27T19:06:28.243Z,83.10
2019-01-27T19:09:00.794Z,79.60
2019-01-27T19:11:42.792Z,81.13
2019-01-27T19:14:24.479Z,77.90
2019-01-27T19:17:10.687Z,87.57
2019-01-27T19:19:58.598Z,76.43
2019-01-27T19:22:34.176Z,77.10
2019-01-27T19:25:16.014Z,81.23
2019-01-27T19:27:54.909Z,75.33
2019-01-27T19:30:30.718Z,69.77
2019-01-27T19:33:15.813Z,65.57
2019-01-27T19:35:57.607Z,64.53
2019-01-27T19:38:27.525Z,64.70
2019-01-27T19:41:02.975Z,60.60
2019-01-27T19:43:32.878Z,63.33
2019-01-27T19:46:08.759Z,56.57
2019-01-27T19:48:54.695Z,61.03
2019-01-27T19:51:30.272Z,58.57
2019-01-27T19:54:03.042Z,59.93
2019-01-27T19:56:32.959Z,58.03
2019-01-27T19:59:19.227Z,62.07
2019-01-27T20:04:48.888Z,62.47
2019-01-27T20:07:18.823Z,62.17
2019-01-27T20:09:57.548Z,64.40
2019-01-27T20:12:39.551Z,58.77
2019-01-27T20:15:12.772Z,60.53
2019-01-27T20:17:42.725Z,63.17
2019-01-27T20:20:15.536Z,63.20
2019-01-27T20:22:51.114Z,61.20
2019-01-27T20:25:37.389Z,63.70
2019-01-27T20:28:23.230Z,61.43
2019-01-27T20:30:58.997Z,61.27
2019-01-27T20:33:31.715Z,63.93
2019-01-27T20:36:01.632Z,63.47
2019-01-27T20:38:31.763Z,65.00
2019-01-27T20:41:07.828Z,66.33
2019-01-27T20:43:37.753Z,62.20
2019-01-27T20:46:07.763Z,68.77
2019-01-27T20:48:54.015Z,70.57
2019-01-27T20:51:41.984Z,84.40
2019-01-27T20:54:26.729Z,82.07
2019-01-27T20:56:56.787Z,105.53
2019-01-27T20:59:26.716Z,105.00
2019-01-27T21:02:13.285Z,86.03
2019-01-27T21:04:45.971Z,88.17
2019-01-27T21:07:18.809Z,89.67
2019-01-27T21:09:54.325Z,89.37
2019-01-27T21:12:26.749Z,89.00
2019-01-27T21:14:59.217Z,89.83
2019-01-27T21:17:29.140Z,88.43
2019-01-27T21:19:57.622Z,92.50
2019-01-27T21:22:25.895Z,93.03
2019-01-27T21:24:57.435Z,89.80
2019-01-27T21:27:25.774Z,98.90
2019-01-27T21:29:54.162Z,102.60
2019-01-27T21:32:24.242Z,82.57
2019-01-27T21:34:52.560Z,95.53
2019-01-27T21:37:22.472Z,83.37
2019-01-27T21:39:50.750Z,83.67
2019-01-27T21:42:20.793Z,83.10
2019-01-27T21:44:49.257Z,87.70
2019-01-27T21:47:17.573Z,90.07
2019-01-27T21:49:47.532Z,82.63
2019-01-27T21:52:17.111Z,74.20
2019-01-27T21:54:47.085Z,77.33
2019-01-27T21:57:15.648Z,79.23
2019-01-27T21:59:44.068Z,74.93
2019-01-27T22:02:12.342Z,77.47
2019-01-27T22:04:40.681Z,77.13
2019-01-27T22:07:12.189Z,78.97
2019-01-27T22:09:40.543Z,77.90
2019-01-27T22:12:08.853Z,72.43
2019-01-27T22:14:39.648Z,84.30
2019-01-27T22:17:10.486Z,77.60
2019-01-27T22:19:40.445Z,74.77
2019-01-27T22:22:10.406Z,74.83
2019-01-27T22:24:38.685Z,70.00
2019-01-27T22:27:07.007Z,73.00
2019-01-27T22:29:37.313Z,65.43
2019-01-27T22:32:07.238Z,70.57
2019-01-27T22:34:37.173Z,70.80
2019-01-27T22:37:05.733Z,68.37
2019-01-27T22:39:37.853Z,67.83
2019-01-27T22:42:08.204Z,63.77
2019-01-27T22:44:36.487Z,60.60
2019-01-27T22:47:04.751Z,60.83
2019-01-27T22:49:33.098Z,63.13
2019-01-27T22:52:01.366Z,61.33
2019-01-27T22:54:29.644Z,64.80
2019-01-27T22:56:57.961Z,64.40
2019-01-27T22:59:26.265Z,59.10
2019-01-27T23:01:54.531Z,67.43
2019-01-27T23:04:22.869Z,61.13
2019-01-27T23:06:51.155Z,63.10
2019-01-27T23:09:20.203Z,64.03
2019-01-27T23:11:48.521Z,60.03
2019-01-27T23:14:16.786Z,61.00
2019-01-27T23:16:45.060Z,63.83
2019-01-27T23:19:13.591Z,63.17
2019-01-27T23:21:41.872Z,61.00
2019-01-27T23:24:10.146Z,62.97
2019-01-27T23:26:38.455Z,61.63
2019-01-27T23:29:06.732Z,61.17
2019-01-27T23:31:35.068Z,58.03
2019-01-27T23:34:03.458Z,58.63
2019-01-27T23:36:31.741Z,56.77
2019-01-27T23:39:00.072Z,56.97
2019-01-27T23:41:28.404Z,61.03
2019-01-27T23:43:56.684Z,60.40
2019-01-27T23:46:25.030Z,57.13
2019-01-27T23:48:53.443Z,54.07
2019-01-27T23:51:21.723Z,56.50
2019-01-27T23:53:50.024Z,53.70
2019-01-27T23:56:18.360Z,52.83
2019-01-27T23:58:46.647Z,55.90
